Time;durP1;ratioP1;P1;durP2;ratioP2;P2;SDS_P1;SDS_P2;PMS_P1;PMS_P2;Temp;Humidity;BMP_temperature;BMP_pressure;BME280_temperature;BME280_humidity;BME280_pressure;Samples;Min_cycle;Max_cycle;Signal;HPM_P1;HPM_P2
2023/11/05 00:00:41;;;;;;;1.75;0.40;;;;;;;;;;5135894;27;20023;-66
2023/11/05 00:03:07;;;;;;;0.45;0.38;;;;;;;;;;5136165;27;20019;-67
2023/11/05 00:05:33;;;;;;;1.17;0.30;;;;;;;;;;5136199;27;20084;-66
2023/11/05 00:07:59;;;;;;;1.00;0.40;;;;;;;;;;5134487;27;20027;-66
2023/11/05 00:10:25;;;;;;;0.90;0.40;;;;;;;;;;5128159;27;20020;-66
2023/11/05 00:12:51;;;;;;;2.05;0.35;;;;;;;;;;5133627;27;20027;-66
2023/11/05 00:15:17;;;;;;;0.90;0.20;;;;;;;;;;5134213;27;20099;-66
2023/11/05 00:17:43;;;;;;;0.93;0.40;;;;;;;;;;5132418;27;20035;-67
2023/11/05 00:20:09;;;;;;;1.55;0.60;;;;;;;;;;5133826;27;20016;-67
2023/11/05 00:22:35;;;;;;;1.88;0.63;;;;;;;;;;5134449;27;20094;-67
2023/11/05 00:25:01;;;;;;;2.47;0.30;;;;;;;;;;5133971;27;20043;-67
2023/11/05 00:27:27;;;;;;;2.22;0.45;;;;;;;;;;5126861;27;20027;-67
2023/11/05 00:29:54;;;;;;;0.30;0.30;;;;;;;;;;5133416;27;20036;-67
2023/11/05 00:32:20;;;;;;;1.30;0.35;;;;;;;;;;5133980;27;20079;-67
2023/11/05 00:34:46;;;;;;;2.83;0.30;;;;;;;;;;5127760;27;20019;-67
2023/11/05 00:37:12;;;;;;;1.25;0.32;;;;;;;;;;5116463;27;20106;-67
2023/11/05 00:39:40;;;;;;;1.10;0.22;;;;;;;;;;5133325;27;20405;-67
2023/11/05 00:42:06;;;;;;;1.60;0.25;;;;;;;;;;5131466;27;20011;-67
2023/11/05 00:44:32;;;;;;;0.70;0.20;;;;;;;;;;5130252;27;20021;-67
2023/11/05 00:46:58;;;;;;;0.85;0.20;;;;;;;;;;5131580;27;20027;-67
2023/11/05 00:49:24;;;;;;;0.77;0.28;;;;;;;;;;5134313;27;20098;-67
2023/11/05 00:51:50;;;;;;;0.40;0.38;;;;;;;;;;5133506;27;20448;-67
2023/11/05 00:54:16;;;;;;;0.40;0.20;;;;;;;;;;5132837;27;20026;-67
2023/11/05 00:56:42;;;;;;;2.80;0.20;;;;;;;;;;5133245;27;20030;-67
2023/11/05 00:59:07;;;;;;;0.60;0.40;;;;;;;;;;5126120;27;20015;-67
2023/11/05 01:01:33;;;;;;;0.22;0.20;;;;;;;;;;5133949;27;20102;-68
2023/11/05 01:04:00;;;;;;;0.43;0.15;;;;;;;;;;5132493;27;20475;-67
2023/11/05 01:06:25;;;;;;;0.55;0.10;;;;;;;;;;5115128;27;20519;-67
2023/11/05 01:08:51;;;;;;;0.30;0.10;;;;;;;;;;5130088;27;20102;-67
2023/11/05 01:11:19;;;;;;;0.60;0.13;;;;;;;;;;5126304;27;20038;-67
2023/11/05 01:13:45;;;;;;;0.85;0.43;;;;;;;;;;5124943;27;20600;-67
2023/11/05 01:16:12;;;;;;;0.15;0.10;;;;;;;;;;5133108;27;20122;-67
2023/11/05 01:18:38;;;;;;;1.10;0.20;;;;;;;;;;5131768;27;20023;-67
2023/11/05 01:21:04;;;;;;;1.67;0.40;;;;;;;;;;5132538;27;20458;-67
2023/11/05 01:23:30;;;;;;;1.77;0.30;;;;;;;;;;5132354;27;20022;-67
2023/11/05 01:25:56;;;;;;;1.00;0.38;;;;;;;;;;5126190;27;20636;-67
2023/11/05 01:28:22;;;;;;;0.45;0.45;;;;;;;;;;5132475;27;20031;-67
2023/11/05 01:30:48;;;;;;;1.25;0.38;;;;;;;;;;5131981;27;20015;-67
2023/11/05 01:33:14;;;;;;;1.38;0.20;;;;;;;;;;5129981;27;20084;-68
2023/11/05 01:35:40;;;;;;;2.20;0.20;;;;;;;;;;5128616;27;20034;-67
2023/11/05 01:38:06;;;;;;;0.60;0.10;;;;;;;;;;5131381;27;20034;-67
2023/11/05 01:40:32;;;;;;;1.63;0.30;;;;;;;;;;5116891;27;20026;-65
2023/11/05 01:42:58;;;;;;;0.57;0.32;;;;;;;;;;5131175;27;20499;-65
2023/11/05 01:45:24;;;;;;;2.95;0.40;;;;;;;;;;5132293;27;20344;-66
2023/11/05 01:47:51;;;;;;;1.38;0.22;;;;;;;;;;5131226;27;20120;-67
2023/11/05 01:50:17;;;;;;;2.47;0.57;;;;;;;;;;5132698;27;20026;-66
2023/11/05 01:52:46;;;;;;;1.02;0.20;;;;;;;;;;5130789;27;20095;-65
2023/11/05 01:55:12;;;;;;;2.88;0.30;;;;;;;;;;5132264;27;20015;-66
2023/11/05 01:57:38;;;;;;;0.32;0.15;;;;;;;;;;5131371;27;20027;-66
2023/11/05 02:00:05;;;;;;;1.17;0.10;;;;;;;;;;5131766;27;20072;-66
2023/11/05 02:02:31;;;;;;;0.70;0.20;;;;;;;;;;5127082;27;20023;-66
2023/11/05 02:04:58;;;;;;;0.52;0.13;;;;;;;;;;5129463;27;20613;-66
2023/11/05 02:07:24;;;;;;;0.40;0.30;;;;;;;;;;5132414;27;20015;-67
2023/11/05 02:09:50;;;;;;;0.80;0.17;;;;;;;;;;5131016;27;20019;-66
2023/11/05 02:12:16;;;;;;;1.75;0.32;;;;;;;;;;5132047;27;20022;-66
2023/11/05 02:14:49;;;;;;;1.80;0.28;;;;;;;;;;5130746;27;20019;-65
2023/11/05 02:17:15;;;;;;;2.17;0.40;;;;;;;;;;5130892;27;20039;-65
2023/11/05 02:19:42;;;;;;;1.95;0.50;;;;;;;;;;5130635;27;20026;-65
2023/11/05 02:22:14;;;;;;;1.77;0.40;;;;;;;;;;5128283;27;20050;-65
2023/11/05 02:24:43;;;;;;;1.80;0.30;;;;;;;;;;5130976;27;20071;-65
2023/11/05 02:27:09;;;;;;;1.42;0.22;;;;;;;;;;5132044;27;20019;-65
2023/11/05 02:29:35;;;;;;;3.10;0.30;;;;;;;;;;5131072;27;20011;-67
2023/11/05 02:32:03;;;;;;;3.22;0.50;;;;;;;;;;5131312;28;20050;-68
2023/11/05 02:34:29;;;;;;;2.28;0.50;;;;;;;;;;5131274;28;20325;-67
2023/11/05 02:36:55;;;;;;;5.55;0.40;;;;;;;;;;5131149;28;20258;-68
2023/11/05 02:39:21;;;;;;;1.80;0.30;;;;;;;;;;5131550;28;20068;-68
2023/11/05 02:41:47;;;;;;;0.95;0.30;;;;;;;;;;5139321;27;20095;-68
2023/11/05 02:44:13;;;;;;;1.70;0.30;;;;;;;;;;5130505;28;20015;-68
2023/11/05 02:46:39;;;;;;;4.03;0.40;;;;;;;;;;5128729;28;20458;-68
2023/11/05 02:49:09;;;;;;;4.97;0.52;;;;;;;;;;5131394;28;20108;-67
2023/11/05 02:51:35;;;;;;;1.90;0.40;;;;;;;;;;5131379;28;20042;-66
2023/11/05 02:54:02;;;;;;;1.48;0.40;;;;;;;;;;5128734;28;20027;-66
2023/11/05 02:56:28;;;;;;;4.40;0.70;;;;;;;;;;5123566;28;20069;-66
2023/11/05 02:58:54;;;;;;;5.22;0.57;;;;;;;;;;5131084;27;20772;-66
2023/11/05 03:01:23;;;;;;;6.47;0.60;;;;;;;;;;5130155;28;20094;-66
2023/11/05 03:03:50;;;;;;;3.25;0.90;;;;;;;;;;5130619;28;20015;-66
2023/11/05 03:06:16;;;;;;;3.10;0.52;;;;;;;;;;5131595;28;20068;-66
2023/11/05 03:08:42;;;;;;;1.77;0.73;;;;;;;;;;5111822;28;20019;-66
2023/11/05 03:11:08;;;;;;;3.35;0.50;;;;;;;;;;5122331;28;20022;-66
2023/11/05 03:13:34;;;;;;;3.53;0.50;;;;;;;;;;5131029;28;20467;-65
2023/11/05 03:16:00;;;;;;;2.90;0.60;;;;;;;;;;5135116;27;20032;-65
2023/11/05 03:18:27;;;;;;;2.22;0.45;;;;;;;;;;5103089;28;20089;-66
2023/11/05 03:20:53;;;;;;;2.83;0.50;;;;;;;;;;5109953;28;20069;-66
2023/11/05 03:23:19;;;;;;;2.25;0.50;;;;;;;;;;5104402;28;20024;-66
2023/11/05 03:25:45;;;;;;;3.20;0.77;;;;;;;;;;5107256;28;20019;-66
2023/11/05 03:28:11;;;;;;;4.70;0.70;;;;;;;;;;5110566;28;20019;-67
2023/11/05 03:30:37;;;;;;;2.28;0.60;;;;;;;;;;5104207;28;20043;-66
2023/11/05 03:33:05;;;;;;;3.55;0.80;;;;;;;;;;5114485;27;20020;-66
2023/11/05 03:35:31;;;;;;;1.48;0.40;;;;;;;;;;5114503;28;20079;-66
2023/11/05 03:37:57;;;;;;;2.88;0.57;;;;;;;;;;5113304;28;20028;-66
2023/11/05 03:40:23;;;;;;;3.25;0.60;;;;;;;;;;5112710;28;20043;-66
2023/11/05 03:42:49;;;;;;;4.03;0.65;;;;;;;;;;5111942;28;20370;-65
2023/11/05 03:45:15;;;;;;;3.15;0.80;;;;;;;;;;5114306;28;20019;-66
2023/11/05 03:47:41;;;;;;;2.78;0.73;;;;;;;;;;5112491;28;20024;-66
2023/11/05 03:50:07;;;;;;;3.92;0.70;;;;;;;;;;5114125;27;20084;-66
2023/11/05 03:52:33;;;;;;;7.10;0.75;;;;;;;;;;5113884;28;20095;-65
2023/11/05 03:54:59;;;;;;;5.57;1.02;;;;;;;;;;5112397;28;20094;-66
2023/11/05 03:57:25;;;;;;;4.55;0.77;;;;;;;;;;5113969;28;20456;-66
2023/11/05 03:59:51;;;;;;;3.00;0.80;;;;;;;;;;5112218;28;20072;-66
2023/11/05 04:02:17;;;;;;;5.72;0.60;;;;;;;;;;5113637;28;20043;-66
2023/11/05 04:04:48;;;;;;;4.32;0.60;;;;;;;;;;5112410;28;20031;-66
2023/11/05 04:07:14;;;;;;;13.98;0.95;;;;;;;;;;5113616;28;20027;-66
2023/11/05 04:09:40;;;;;;;3.10;0.90;;;;;;;;;;5112233;28;20356;-66
2023/11/05 04:12:06;;;;;;;7.25;1.02;;;;;;;;;;5108870;28;20019;-66
2023/11/05 04:14:32;;;;;;;3.20;1.10;;;;;;;;;;5100543;28;20106;-66
2023/11/05 04:16:58;;;;;;;5.68;0.55;;;;;;;;;;5124679;27;20142;-66
2023/11/05 04:19:24;;;;;;;3.15;0.60;;;;;;;;;;5132776;27;20027;-66
2023/11/05 04:21:50;;;;;;;4.13;0.80;;;;;;;;;;5114698;27;20027;-65
2023/11/05 04:24:16;;;;;;;5.78;0.82;;;;;;;;;;5133118;27;20015;-65
2023/11/05 04:26:42;;;;;;;2.38;0.70;;;;;;;;;;5133204;27;20023;-66
2023/11/05 04:29:08;;;;;;;2.08;0.55;;;;;;;;;;5129017;27;20035;-66
2023/11/05 04:31:34;;;;;;;2.47;0.40;;;;;;;;;;5125840;27;20359;-66
2023/11/05 04:34:01;;;;;;;1.77;0.50;;;;;;;;;;5119656;27;20018;-66
2023/11/05 04:36:27;;;;;;;4.82;0.60;;;;;;;;;;5130075;27;20045;-66
2023/11/05 04:38:54;;;;;;;2.17;0.50;;;;;;;;;;5131445;27;20134;-67
2023/11/05 04:41:21;;;;;;;2.50;0.60;;;;;;;;;;5133055;27;20373;-66
2023/11/05 04:43:47;;;;;;;2.47;0.70;;;;;;;;;;5132186;27;20011;-66
2023/11/05 04:46:13;;;;;;;1.17;0.40;;;;;;;;;;5130587;27;20025;-66
2023/11/05 04:48:39;;;;;;;3.45;0.82;;;;;;;;;;5122015;27;20035;-66
2023/11/05 04:51:11;;;;;;;2.20;0.60;;;;;;;;;;5132956;27;20086;-66
2023/11/05 04:53:38;;;;;;;2.88;0.38;;;;;;;;;;5114501;27;20396;-66
2023/11/05 04:56:05;;;;;;;4.75;0.47;;;;;;;;;;5133122;27;20068;-65
2023/11/05 04:58:30;;;;;;;3.78;0.60;;;;;;;;;;5132375;27;20019;-66
2023/11/05 05:00:57;;;;;;;2.40;0.63;;;;;;;;;;5124490;27;20084;-65
2023/11/05 05:03:22;;;;;;;3.58;0.65;;;;;;;;;;5132626;27;20038;-66
2023/11/05 05:05:48;;;;;;;2.88;0.85;;;;;;;;;;5131772;27;20035;-65
2023/11/05 05:08:14;;;;;;;4.88;0.55;;;;;;;;;;5132979;27;20057;-65
2023/11/05 05:10:40;;;;;;;4.53;0.75;;;;;;;;;;5131684;27;20449;-66
2023/11/05 05:13:06;;;;;;;3.45;0.43;;;;;;;;;;5132580;27;20022;-66
2023/11/05 05:15:32;;;;;;;1.58;0.52;;;;;;;;;;5131734;27;20073;-65
2023/11/05 05:17:58;;;;;;;3.03;0.70;;;;;;;;;;5110936;28;20074;-66
2023/11/05 05:20:24;;;;;;;3.85;0.60;;;;;;;;;;5110398;28;20456;-66
2023/11/05 05:22:51;;;;;;;4.22;0.82;;;;;;;;;;5110624;28;20123;-66
2023/11/05 05:25:17;;;;;;;1.67;0.50;;;;;;;;;;5111777;28;20019;-66
2023/11/05 05:27:43;;;;;;;7.15;1.08;;;;;;;;;;5110556;28;20043;-67
2023/11/05 05:30:09;;;;;;;3.88;0.57;;;;;;;;;;5110565;28;20537;-66
2023/11/05 05:32:35;;;;;;;2.28;1.02;;;;;;;;;;5102494;28;20019;-66
2023/11/05 05:35:01;;;;;;;3.25;0.57;;;;;;;;;;5110607;28;20046;-66
2023/11/05 05:37:28;;;;;;;2.95;0.90;;;;;;;;;;5111843;28;20453;-66
2023/11/05 05:39:54;;;;;;;2.78;0.50;;;;;;;;;;5103438;28;20015;-66
2023/11/05 05:42:19;;;;;;;2.90;0.50;;;;;;;;;;5112063;28;20038;-66
2023/11/05 05:44:46;;;;;;;2.60;0.55;;;;;;;;;;5110256;28;20023;-66
2023/11/05 05:47:13;;;;;;;5.78;0.70;;;;;;;;;;5111341;28;20079;-66
2023/11/05 05:49:39;;;;;;;4.13;0.90;;;;;;;;;;5109321;28;20024;-65
2023/11/05 05:52:05;;;;;;;2.25;0.60;;;;;;;;;;5110544;28;20023;-66
2023/11/05 05:54:31;;;;;;;3.35;0.52;;;;;;;;;;5111136;28;20095;-66
2023/11/05 05:56:57;;;;;;;3.95;0.40;;;;;;;;;;5110287;28;20019;-66
2023/11/05 05:59:23;;;;;;;3.42;0.47;;;;;;;;;;5109688;28;20024;-66
2023/11/05 06:01:49;;;;;;;2.78;0.80;;;;;;;;;;5095989;28;20050;-66
2023/11/05 06:04:15;;;;;;;1.35;0.47;;;;;;;;;;5111223;28;20018;-66
2023/11/05 06:06:41;;;;;;;3.33;0.40;;;;;;;;;;5100946;28;20149;-66
2023/11/05 06:09:11;;;;;;;3.58;0.75;;;;;;;;;;5110865;28;20091;-66
2023/11/05 06:11:37;;;;;;;2.03;0.47;;;;;;;;;;5110325;28;20428;-67
2023/11/05 06:14:03;;;;;;;2.15;0.50;;;;;;;;;;5110611;28;20036;-67
2023/11/05 06:16:29;;;;;;;0.77;0.40;;;;;;;;;;5110693;28;20043;-67
2023/11/05 06:18:55;;;;;;;3.60;0.70;;;;;;;;;;5109873;28;20022;-67
2023/11/05 06:21:21;;;;;;;2.33;0.50;;;;;;;;;;5111781;28;20125;-68
2023/11/05 06:23:47;;;;;;;3.00;0.80;;;;;;;;;;5111720;28;20042;-67
2023/11/05 06:26:13;;;;;;;0.90;0.28;;;;;;;;;;5111136;28;20019;-67
2023/11/05 06:28:39;;;;;;;1.65;0.50;;;;;;;;;;5104437;28;20410;-67
2023/11/05 06:31:05;;;;;;;2.33;0.43;;;;;;;;;;5091460;28;20020;-67
2023/11/05 06:33:33;;;;;;;2.38;0.50;;;;;;;;;;5098261;28;20016;-67
2023/11/05 06:36:01;;;;;;;1.90;0.43;;;;;;;;;;5104171;28;20050;-67
2023/11/05 06:38:27;;;;;;;2.72;0.30;;;;;;;;;;5099854;28;20305;-68
2023/11/05 06:40:53;;;;;;;1.52;0.40;;;;;;;;;;5110652;28;20019;-67
2023/11/05 06:43:19;;;;;;;1.27;0.40;;;;;;;;;;5110930;28;20027;-67
2023/11/05 06:45:45;;;;;;;1.88;0.28;;;;;;;;;;5109936;28;20073;-67
2023/11/05 06:48:11;;;;;;;2.17;0.45;;;;;;;;;;5111262;28;20020;-67
2023/11/05 06:50:37;;;;;;;0.65;0.20;;;;;;;;;;5110825;28;20015;-67
2023/11/05 06:53:03;;;;;;;1.70;0.40;;;;;;;;;;5110774;28;20016;-67
2023/11/05 06:55:29;;;;;;;2.88;0.20;;;;;;;;;;5108736;28;20019;-68
2023/11/05 06:57:55;;;;;;;3.92;0.60;;;;;;;;;;5109910;28;20092;-67
2023/11/05 07:00:21;;;;;;;1.35;0.17;;;;;;;;;;5109069;28;20027;-67
2023/11/05 07:02:47;;;;;;;1.05;0.38;;;;;;;;;;5111292;28;20016;-67
2023/11/05 07:05:13;;;;;;;2.55;0.22;;;;;;;;;;5114873;28;20020;-67
2023/11/05 07:07:39;;;;;;;1.23;0.45;;;;;;;;;;5113174;28;20121;-67
2023/11/05 07:10:06;;;;;;;1.50;0.38;;;;;;;;;;5112964;28;20024;-67
2023/11/05 07:12:32;;;;;;;1.95;0.22;;;;;;;;;;5114572;28;20023;-67
2023/11/05 07:15:02;;;;;;;1.25;0.25;;;;;;;;;;5106250;28;20063;-67
2023/11/05 07:17:28;;;;;;;2.92;0.35;;;;;;;;;;5123911;27;20050;-67
2023/11/05 07:19:54;;;;;;;1.05;0.25;;;;;;;;;;5128404;27;20559;-67
2023/11/05 07:22:20;;;;;;;1.38;0.30;;;;;;;;;;5131687;27;20099;-68
2023/11/05 07:24:46;;;;;;;1.23;0.20;;;;;;;;;;5129193;27;20038;-67
2023/11/05 07:27:12;;;;;;;2.22;0.40;;;;;;;;;;5117318;27;20059;-67
2023/11/05 07:29:38;;;;;;;0.73;0.20;;;;;;;;;;5115252;27;20145;-67
2023/11/05 07:32:04;;;;;;;1.88;0.30;;;;;;;;;;5116185;27;20424;-67
2023/11/05 07:34:30;;;;;;;0.98;0.25;;;;;;;;;;5128551;27;20387;-67
2023/11/05 07:36:57;;;;;;;0.70;0.20;;;;;;;;;;5133458;27;20030;-67
2023/11/05 07:39:23;;;;;;;1.83;0.20;;;;;;;;;;5127286;27;20020;-67
2023/11/05 07:41:49;;;;;;;1.05;0.30;;;;;;;;;;5126774;27;20015;-67
2023/11/05 07:44:15;;;;;;;0.85;0.30;;;;;;;;;;5132712;27;20060;-67
2023/11/05 07:46:41;;;;;;;1.67;0.32;;;;;;;;;;5134364;27;20440;-67
2023/11/05 07:49:07;;;;;;;3.47;0.43;;;;;;;;;;5134602;27;20017;-67
2023/11/05 07:51:33;;;;;;;3.75;0.20;;;;;;;;;;5134887;27;20412;-67
2023/11/05 07:54:02;;;;;;;0.98;0.20;;;;;;;;;;5135249;27;20475;-68
2023/11/05 07:56:28;;;;;;;4.47;0.47;;;;;;;;;;5116439;27;20059;-67
2023/11/05 07:58:54;;;;;;;0.20;0.20;;;;;;;;;;5117687;27;20054;-67
2023/11/05 08:01:20;;;;;;;1.95;0.30;;;;;;;;;;5123858;27;20368;-67
2023/11/05 08:03:46;;;;;;;1.40;0.20;;;;;;;;;;5125330;27;20023;-67
2023/11/05 08:06:12;;;;;;;1.77;0.30;;;;;;;;;;5140177;27;20031;-66
2023/11/05 08:08:37;;;;;;;1.90;0.38;;;;;;;;;;5133100;27;20031;-65
2023/11/05 08:11:04;;;;;;;1.80;0.40;;;;;;;;;;5126386;27;20363;-65
2023/11/05 08:13:30;;;;;;;0.98;0.20;;;;;;;;;;5129205;27;20103;-65
2023/11/05 08:15:57;;;;;;;4.82;0.30;;;;;;;;;;5120026;27;20035;-66
2023/11/05 08:18:24;;;;;;;1.10;0.30;;;;;;;;;;5108780;28;20031;-66
2023/11/05 08:20:50;;;;;;;0.35;0.10;;;;;;;;;;5102091;27;20026;-66
2023/11/05 08:23:17;;;;;;;0.20;0.13;;;;;;;;;;5109411;28;20016;-66
2023/11/05 08:25:43;;;;;;;1.15;0.47;;;;;;;;;;5111958;28;20073;-66
2023/11/05 08:28:09;;;;;;;1.73;0.20;;;;;;;;;;5099852;28;20023;-65
2023/11/05 08:30:35;;;;;;;1.33;0.20;;;;;;;;;;5103909;28;20043;-65
2023/11/05 08:33:01;;;;;;;1.75;0.22;;;;;;;;;;5106674;27;20020;-65
2023/11/05 08:35:27;;;;;;;0.93;0.20;;;;;;;;;;5111376;28;20023;-66
2023/11/05 08:37:54;;;;;;;1.58;0.20;;;;;;;;;;5100876;28;20024;-66
2023/11/05 08:40:20;;;;;;;1.88;0.40;;;;;;;;;;5107363;28;20445;-66
2023/11/05 08:42:47;;;;;;;0.90;0.25;;;;;;;;;;5097640;28;20097;-66
2023/11/05 08:45:15;;;;;;;1.08;0.28;;;;;;;;;;5109618;28;20015;-66
2023/11/05 08:47:41;;;;;;;1.38;0.15;;;;;;;;;;5109594;27;20372;-66
2023/11/05 08:50:07;;;;;;;0.28;0.10;;;;;;;;;;5111122;27;20012;-66
2023/11/05 08:52:33;;;;;;;0.68;0.10;;;;;;;;;;5098200;28;20040;-66
2023/11/05 08:55:00;;;;;;;0.47;0.30;;;;;;;;;;5104492;28;20082;-66
2023/11/05 08:57:26;;;;;;;0.30;0.20;;;;;;;;;;5105310;28;20088;-66
2023/11/05 08:59:52;;;;;;;1.92;0.40;;;;;;;;;;5103618;28;20189;-66
2023/11/05 09:02:19;;;;;;;3.13;0.70;;;;;;;;;;5105570;28;20042;-66
2023/11/05 09:04:45;;;;;;;2.58;1.10;;;;;;;;;;5108246;27;20369;-66
2023/11/05 09:07:11;;;;;;;7.57;3.25;;;;;;;;;;5108546;28;20019;-68
2023/11/05 09:09:38;;;;;;;13.98;4.20;;;;;;;;;;5109363;27;20015;-66
2023/11/05 09:12:07;;;;;;;5.15;1.88;;;;;;;;;;5112367;27;20015;-66
2023/11/05 09:14:34;;;;;;;12.40;8.00;;;;;;;;;;5109063;28;20031;-66
2023/11/05 09:17:00;;;;;;;13.27;9.25;;;;;;;;;;5110584;27;20131;-66
2023/11/05 09:19:26;;;;;;;12.30;6.65;;;;;;;;;;5108815;28;20109;-66
2023/11/05 09:21:52;;;;;;;8.80;3.70;;;;;;;;;;5111028;27;20024;-66
2023/11/05 09:24:18;;;;;;;2.58;0.90;;;;;;;;;;5110345;27;20027;-66
2023/11/05 09:26:44;;;;;;;4.60;0.73;;;;;;;;;;5109938;28;20030;-66
2023/11/05 09:29:10;;;;;;;0.93;0.55;;;;;;;;;;5107811;27;20031;-66
2023/11/05 09:31:36;;;;;;;1.25;0.50;;;;;;;;;;5099356;28;20127;-66
2023/11/05 09:34:02;;;;;;;2.92;0.38;;;;;;;;;;5098322;27;20541;-66
2023/11/05 09:36:28;;;;;;;4.18;0.30;;;;;;;;;;5120559;27;20016;-66
2023/11/05 09:38:56;;;;;;;1.55;0.30;;;;;;;;;;5096562;27;20039;-66
2023/11/05 09:41:26;;;;;;;2.80;0.32;;;;;;;;;;5119234;27;20066;-66
2023/11/05 09:43:52;;;;;;;0.50;0.20;;;;;;;;;;5105673;27;20040;-66
2023/11/05 09:46:18;;;;;;;0.85;0.30;;;;;;;;;;5104580;28;20031;-67
2023/11/05 09:48:44;;;;;;;0.57;0.10;;;;;;;;;;5106998;27;20028;-66
2023/11/05 09:51:13;;;;;;;1.65;0.28;;;;;;;;;;5118484;27;20338;-68
2023/11/05 09:53:39;;;;;;;0.43;0.27;;;;;;;;;;5103453;28;20023;-68
2023/11/05 09:56:06;;;;;;;0.82;0.28;;;;;;;;;;5108763;28;20413;-67
2023/11/05 09:58:32;;;;;;;0.60;0.20;;;;;;;;;;5106733;27;20093;-67
2023/11/05 10:00:58;;;;;;;1.40;0.30;;;;;;;;;;5106168;27;20809;-66
2023/11/05 10:03:27;;;;;;;0.80;0.20;;;;;;;;;;5107862;28;20019;-67
2023/11/05 10:05:55;;;;;;;0.60;0.30;;;;;;;;;;5108802;28;20020;-66
2023/11/05 10:08:22;;;;;;;3.95;0.30;;;;;;;;;;5104907;28;20483;-66
2023/11/05 10:10:48;;;;;;;1.85;0.30;;;;;;;;;;5105163;27;20020;-67
2023/11/05 10:13:16;;;;;;;0.90;0.28;;;;;;;;;;5105323;28;20392;-67
2023/11/05 10:15:42;;;;;;;2.75;0.20;;;;;;;;;;5105140;27;20112;-67
2023/11/05 10:18:17;;;;;;;0.95;0.40;;;;;;;;;;5128816;27;20124;-67
2023/11/05 10:20:50;;;;;;;1.73;0.50;;;;;;;;;;5127847;27;20023;-67
2023/11/05 10:23:17;;;;;;;1.10;0.20;;;;;;;;;;5128042;27;20488;-67
2023/11/05 10:25:52;;;;;;;1.52;0.30;;;;;;;;;;5127831;27;20022;-67
2023/11/05 10:28:23;;;;;;;0.57;0.20;;;;;;;;;;5125978;27;20016;-68
2023/11/05 10:30:49;;;;;;;;;;;;;;;;;;5126258;27;20015;-68
2023/11/05 10:33:15;;;;;;;1.08;0.30;;;;;;;;;;5127175;27;19900;-68
2023/11/05 10:35:41;;;;;;;1.42;0.20;;;;;;;;;;5125460;27;20015;-67
2023/11/05 10:38:10;;;;;;;0.90;0.20;;;;;;;;;;5130870;27;20487;-68
2023/11/05 10:40:38;;;;;;;1.23;0.45;;;;;;;;;;5117568;27;21286;-67
2023/11/05 10:43:04;;;;;;;0.93;0.40;;;;;;;;;;5131289;27;20027;-68
2023/11/05 10:45:31;;;;;;;0.63;0.30;;;;;;;;;;5135435;27;20030;-68
2023/11/05 10:47:57;;;;;;;2.40;0.47;;;;;;;;;;5116502;27;20019;-68
2023/11/05 10:50:23;;;;;;;1.83;0.68;;;;;;;;;;5136694;27;20042;-68
2023/11/05 10:52:52;;;;;;;2.15;0.52;;;;;;;;;;5132256;27;20045;-68
2023/11/05 10:55:18;;;;;;;2.65;0.32;;;;;;;;;;5134783;27;20037;-67
2023/11/05 10:57:48;;;;;;;1.67;0.30;;;;;;;;;;5134620;27;20337;-68
2023/11/05 11:00:15;;;;;;;1.00;0.43;;;;;;;;;;5135391;27;20035;-68
2023/11/05 11:02:41;;;;;;;2.38;0.70;;;;;;;;;;5134621;27;20456;-67
2023/11/05 11:05:13;;;;;;;1.33;0.40;;;;;;;;;;5136583;27;20022;-68
2023/11/05 11:07:43;;;;;;;1.27;0.25;;;;;;;;;;5133276;27;20023;-69
2023/11/05 11:10:09;;;;;;;2.83;0.30;;;;;;;;;;5136193;27;20038;-67
2023/11/05 11:12:37;;;;;;;0.57;0.30;;;;;;;;;;5137055;27;20027;-67
2023/11/05 11:15:03;;;;;;;3.95;0.45;;;;;;;;;;5137749;27;20047;-70
2023/11/05 11:17:33;;;;;;;2.30;0.20;;;;;;;;;;5137699;27;20039;-67
2023/11/05 11:20:00;;;;;;;2.28;0.25;;;;;;;;;;5126374;27;20039;-68
2023/11/05 11:22:41;;;;;;;1.85;0.30;;;;;;;;;;5136428;27;20027;-66
2023/11/05 11:25:10;;;;;;;0.70;0.20;;;;;;;;;;5135597;27;20118;-69
2023/11/05 11:27:40;;;;;;;0.60;0.35;;;;;;;;;;5135835;27;20045;-68
2023/11/05 11:30:09;;;;;;;1.33;0.32;;;;;;;;;;5135768;27;20025;-67
2023/11/05 11:32:39;;;;;;;2.60;0.70;;;;;;;;;;5137564;27;20035;-67
2023/11/05 11:35:06;;;;;;;1.20;0.57;;;;;;;;;;5134814;27;20098;-68
2023/11/05 11:37:32;;;;;;;1.17;0.32;;;;;;;;;;5137623;27;20081;-68
2023/11/05 11:39:59;;;;;;;0.50;0.30;;;;;;;;;;5130549;27;20154;-68
2023/11/05 11:42:25;;;;;;;0.90;0.45;;;;;;;;;;5137707;27;20023;-68
2023/11/05 11:44:51;;;;;;;1.70;0.40;;;;;;;;;;5137211;27;20071;-67
2023/11/05 11:47:17;;;;;;;0.35;0.30;;;;;;;;;;5138223;27;20098;-68
2023/11/05 11:49:44;;;;;;;0.38;0.30;;;;;;;;;;5131152;27;20042;-67
2023/11/05 11:52:10;;;;;;;0.75;0.40;;;;;;;;;;5134729;27;20039;-67
2023/11/05 11:54:36;;;;;;;0.60;0.38;;;;;;;;;;5134295;27;20018;-68
2023/11/05 11:57:02;;;;;;;0.38;0.28;;;;;;;;;;5113832;27;20030;-69
2023/11/05 11:59:28;;;;;;;0.30;0.30;;;;;;;;;;5131942;27;20031;-69
2023/11/05 12:01:56;;;;;;;0.50;0.40;;;;;;;;;;5126594;27;20896;-69
2023/11/05 12:04:22;;;;;;;2.13;0.30;;;;;;;;;;5111609;27;20405;-74
2023/11/05 12:06:49;;;;;;;1.02;0.30;;;;;;;;;;5134624;27;20015;-73
2023/11/05 12:09:22;;;;;;;0.80;0.40;;;;;;;;;;5121742;27;20066;-73
2023/11/05 12:11:51;;;;;;;0.38;0.35;;;;;;;;;;5134318;27;20058;-70
2023/11/05 12:14:24;;;;;;;1.00;0.35;;;;;;;;;;5132414;27;20023;-68
2023/11/05 12:16:51;;;;;;;3.80;0.17;;;;;;;;;;5132857;27;20043;-69
2023/11/05 12:19:17;;;;;;;0.82;0.28;;;;;;;;;;5129971;27;20022;-68
2023/11/05 12:21:43;;;;;;;0.40;0.25;;;;;;;;;;5132123;27;20011;-68
2023/11/05 12:24:15;;;;;;;1.08;0.60;;;;;;;;;;5131732;27;20007;-68
2023/11/05 12:26:42;;;;;;;0.88;0.60;;;;;;;;;;5132618;27;20022;-68
2023/11/05 12:29:11;;;;;;;0.70;0.20;;;;;;;;;;5132775;27;20019;-68
2023/11/05 12:31:38;;;;;;;3.25;1.40;;;;;;;;;;5130476;27;20015;-68
2023/11/05 12:34:04;;;;;;;1.05;0.50;;;;;;;;;;5130468;27;20151;-68
2023/11/05 12:36:31;;;;;;;1.77;0.98;;;;;;;;;;5133258;27;20459;-68
2023/11/05 12:38:58;;;;;;;0.98;0.30;;;;;;;;;;5130082;27;20154;-68
2023/11/05 12:41:24;;;;;;;1.23;0.43;;;;;;;;;;5134022;27;20031;-68
2023/11/05 12:43:50;;;;;;;1.20;0.47;;;;;;;;;;5131048;27;20090;-68
2023/11/05 12:46:16;;;;;;;0.82;0.35;;;;;;;;;;5132616;27;20355;-68
2023/11/05 12:48:42;;;;;;;2.17;0.73;;;;;;;;;;5131168;27;20083;-68
2023/11/05 12:51:07;;;;;;;0.28;0.20;;;13.60;99.90;;;;;;5133979;27;20038;-68
2023/11/05 12:53:34;;;;;;;0.65;0.45;;;;;;;;;;5132869;27;20102;-67
2023/11/05 12:56:04;;;;;;;0.30;0.30;;;;;;;;;;5132673;27;20015;-67
2023/11/05 12:58:30;;;;;;;2.05;0.50;;;;;;;;;;5132739;27;20424;-67
2023/11/05 13:00:57;;;;;;;0.40;0.40;;;;;;;;;;5132012;27;20101;-67
2023/11/05 13:03:23;;;;;;;0.30;0.30;;;;;;;;;;5133331;27;20050;-68
2023/11/05 13:05:50;;;;;;;1.00;0.50;;;;;;;;;;5132993;27;20515;-66
2023/11/05 13:08:16;;;;;;;2.10;0.40;;;;;;;;;;5126300;27;20031;-67
2023/11/05 13:10:42;;;;;;;2.28;0.40;;;;;;;;;;5129474;27;20030;-67
2023/11/05 13:13:08;;;;;;;0.90;0.40;;;;;;;;;;5133684;27;20019;-67
2023/11/05 13:15:34;;;;;;;1.27;0.40;;;;;;;;;;5133372;27;20102;-68
2023/11/05 13:18:02;;;;;;;0.85;0.30;;;;;;;;;;5132360;27;20038;-67
2023/11/05 13:20:28;;;;;;;0.63;0.50;;;;;;;;;;5133753;27;20475;-67
2023/11/05 13:22:54;;;;;;;4.95;1.05;;;;;;;;;;5132267;27;20015;-67
2023/11/05 13:25:20;;;;;;;0.47;0.35;;;;;;;;;;5116823;27;20019;-67
2023/11/05 13:27:46;;;;;;;0.63;0.40;;;;;;;;;;5111823;28;20028;-67
2023/11/05 13:30:12;;;;;;;0.68;0.25;;;;;;;;;;5112577;28;20043;-67
2023/11/05 13:32:40;;;;;;;0.82;0.32;;;;;;;;;;5112414;28;20032;-67
2023/11/05 13:35:07;;;;;;;1.02;0.30;;;;;;;;;;5104822;28;20110;-67
2023/11/05 13:37:33;;;;;;;1.45;0.50;;;;;;;;;;5104733;28;20036;-67
2023/11/05 13:40:00;;;;;;;0.60;0.60;;;;;;;;;;5102911;28;20563;-66
2023/11/05 13:42:26;;;;;;;0.50;0.28;;;;;;;;;;5111233;28;20043;-67
2023/11/05 13:44:52;;;;;;;1.00;0.30;;;;;;;;;;5089530;28;20068;-66
2023/11/05 13:47:18;;;;;;;0.50;0.43;;;;;;;;;;5110209;28;20403;-67
2023/11/05 13:49:44;;;;;;;2.03;0.40;;;;;;;;;;5106326;28;20383;-67
2023/11/05 13:52:10;;;;;;;0.68;0.50;;;;;;;;;;5108097;28;20028;-67
2023/11/05 13:54:36;;;;;;;2.00;0.55;;;;;;;;;;5108447;28;20028;-67
2023/11/05 13:57:03;;;;;;;1.25;0.60;;;;;;;;;;5108471;28;20114;-68
2023/11/05 13:59:30;;;;;;;1.25;0.63;;;;;;;;;;5107465;28;20081;-67
2023/11/05 14:01:56;;;;;;;1.73;0.82;;;;;;;;;;5100919;28;20023;-67
2023/11/05 14:04:22;;;;;;;2.85;0.55;;;;;;;;;;5105619;28;20047;-67
2023/11/05 14:06:48;;;;;;;3.28;0.57;;;;;;;;;;5107876;28;20051;-67
2023/11/05 14:09:17;;;;;;;0.68;0.43;;;;;;;;;;5105019;28;20028;-67
2023/11/05 14:11:47;;;;;;;1.10;0.63;;;;;;;;;;5102166;28;20039;-67
2023/11/05 14:14:14;;;;;;;1.00;0.50;;;;;;;;;;5112589;27;20487;-67
2023/11/05 14:16:40;;;;;;;0.70;0.40;;;;;;;;;;5105182;27;20497;-67
2023/11/05 14:19:07;;;;;;;1.23;0.40;;;;;;;;;;5130492;27;20035;-66
2023/11/05 14:21:33;;;;;;;0.95;0.40;;;;;;;;;;5124770;27;20027;-67
2023/11/05 14:24:00;;;;;;;1.13;0.40;;;;;;;;;;5123111;27;20023;-66
2023/11/05 14:26:26;;;;;;;1.20;0.50;;;;;;;;;;5124057;27;20534;-67
2023/11/05 14:28:52;;;;;;;1.35;0.22;;;;;;;;;;5117440;28;20022;-67
2023/11/05 14:31:18;;;;;;;0.80;0.30;;;;;;;;;;5117817;27;20543;-66
2023/11/05 14:33:44;;;;;;;0.50;0.43;;;;;;;;;;5130462;27;20015;-67
2023/11/05 14:36:10;;;;;;;2.55;0.50;;;;;;;;;;5129713;27;20015;-67
2023/11/05 14:38:36;;;;;;;4.15;0.90;;;;;;;;;;5129409;28;20400;-69